sensor_id;sensor_type;location;lat;lon;timestamp;pressure;altitude;pressure_sealevel;temperature;humidity
1926;BME280;964;42.606;23.588;2023-11-22T00:01:10;93825.78;;;19.76;38.14
1926;BME280;964;42.606;23.588;2023-11-22T00:03:37;93820.44;;;20.17;37.18
1926;BME280;964;42.606;23.588;2023-11-22T00:06:05;93810.72;;;20.36;36.63
1926;BME280;964;42.606;23.588;2023-11-22T00:08:32;93820.97;;;19.83;38.01
1926;BME280;964;42.606;23.588;2023-11-22T00:10:59;93824.13;;;19.94;37.22
1926;BME280;964;42.606;23.588;2023-11-22T00:13:27;93809.31;;;20.02;38.20
1926;BME280;964;42.606;23.588;2023-11-22T00:15:54;93819.63;;;20.33;37.46
1926;BME280;964;42.606;23.588;2023-11-22T00:18:22;93818.22;;;19.09;40.38
1926;BME280;964;42.606;23.588;2023-11-22T00:20:49;93804.31;;;19.15;41.07
1926;BME280;964;42.606;23.588;2023-11-22T00:23:16;93805.28;;;19.37;40.79
1926;BME280;964;42.606;23.588;2023-11-22T00:25:43;93788.13;;;19.63;39.96
1926;BME280;964;42.606;23.588;2023-11-22T00:28:10;93778.31;;;19.98;39.59
1926;BME280;964;42.606;23.588;2023-11-22T00:30:38;93776.53;;;19.66;39.93
1926;BME280;964;42.606;23.588;2023-11-22T00:33:05;93785.81;;;19.17;41.15
1926;BME280;964;42.606;23.588;2023-11-22T00:35:31;93778.22;;;19.89;40.05
1926;BME280;964;42.606;23.588;2023-11-22T00:37:58;93777.44;;;19.88;40.04
1926;BME280;964;42.606;23.588;2023-11-22T00:40:25;93769.03;;;19.29;41.24
1926;BME280;964;42.606;23.588;2023-11-22T00:42:52;93771.97;;;19.34;40.96
1926;BME280;964;42.606;23.588;2023-11-22T00:45:19;93770.59;;;20.13;39.73
1926;BME280;964;42.606;23.588;2023-11-22T00:47:48;93755.38;;;20.35;39.25
1926;BME280;964;42.606;23.588;2023-11-22T00:50:15;93765.13;;;19.62;40.54
1926;BME280;964;42.606;23.588;2023-11-22T00:52:45;93769.44;;;20.26;39.19
1926;BME280;964;42.606;23.588;2023-11-22T00:55:12;93761.06;;;19.70;40.26
1926;BME280;964;42.606;23.588;2023-11-22T00:57:39;93771.63;;;19.48;40.47
1926;BME280;964;42.606;23.588;2023-11-22T01:00:07;93767.00;;;19.49;40.30
1926;BME280;964;42.606;23.588;2023-11-22T01:02:34;93763.84;;;19.22;41.10
1926;BME280;964;42.606;23.588;2023-11-22T01:05:05;93770.94;;;18.83;41.73
1926;BME280;964;42.606;23.588;2023-11-22T01:07:35;93770.84;;;18.87;42.10
1926;BME280;964;42.606;23.588;2023-11-22T01:10:02;93764.63;;;19.51;41.07
1926;BME280;964;42.606;23.588;2023-11-22T01:12:28;93760.97;;;19.74;40.83
1926;BME280;964;42.606;23.588;2023-11-22T01:14:55;93757.03;;;19.17;41.37
1926;BME280;964;42.606;23.588;2023-11-22T01:17:22;93750.88;;;19.49;41.38
1926;BME280;964;42.606;23.588;2023-11-22T01:19:49;93745.50;;;19.49;41.80
1926;BME280;964;42.606;23.588;2023-11-22T01:22:18;93743.00;;;19.42;41.83
1926;BME280;964;42.606;23.588;2023-11-22T01:24:45;93735.91;;;20.31;40.13
1926;BME280;964;42.606;23.588;2023-11-22T01:27:12;93730.03;;;19.53;41.61
1926;BME280;964;42.606;23.588;2023-11-22T01:29:39;93744.34;;;19.34;42.36
1926;BME280;964;42.606;23.588;2023-11-22T01:32:07;93741.38;;;19.16;41.85
1926;BME280;964;42.606;23.588;2023-11-22T01:34:33;93730.09;;;19.78;41.22
1926;BME280;964;42.606;23.588;2023-11-22T01:37:00;93714.75;;;19.50;42.08
1926;BME280;964;42.606;23.588;2023-11-22T01:39:28;93727.16;;;18.86;43.13
1926;BME280;964;42.606;23.588;2023-11-22T01:41:55;93710.25;;;20.01;41.17
1926;BME280;964;42.606;23.588;2023-11-22T01:44:22;93707.91;;;19.49;42.63
1926;BME280;964;42.606;23.588;2023-11-22T01:46:49;93697.69;;;20.36;40.61
1926;BME280;964;42.606;23.588;2023-11-22T01:49:17;93705.88;;;19.66;41.99
1926;BME280;964;42.606;23.588;2023-11-22T01:51:44;93708.88;;;20.47;40.44
1926;BME280;964;42.606;23.588;2023-11-22T01:54:11;93715.41;;;20.08;41.22
1926;BME280;964;42.606;23.588;2023-11-22T01:56:40;93704.34;;;21.03;39.28
1926;BME280;964;42.606;23.588;2023-11-22T01:59:07;93715.25;;;20.28;40.74
1926;BME280;964;42.606;23.588;2023-11-22T02:01:34;93707.03;;;20.44;40.18
1926;BME280;964;42.606;23.588;2023-11-22T02:04:02;93703.25;;;21.14;38.97
1926;BME280;964;42.606;23.588;2023-11-22T02:06:30;93695.69;;;21.21;38.42
1926;BME280;964;42.606;23.588;2023-11-22T02:08:57;93696.28;;;21.03;38.87
1926;BME280;964;42.606;23.588;2023-11-22T02:11:24;93694.75;;;21.02;39.26
1926;BME280;964;42.606;23.588;2023-11-22T02:13:54;93699.19;;;21.09;38.45
1926;BME280;964;42.606;23.588;2023-11-22T02:16:21;93697.47;;;20.43;39.40
1926;BME280;964;42.606;23.588;2023-11-22T02:18:48;93692.34;;;21.51;37.63
1926;BME280;964;42.606;23.588;2023-11-22T02:21:16;93692.81;;;21.16;38.65
1926;BME280;964;42.606;23.588;2023-11-22T02:23:44;93688.47;;;21.83;37.13
1926;BME280;964;42.606;23.588;2023-11-22T02:26:10;93697.22;;;21.44;37.76
1926;BME280;964;42.606;23.588;2023-11-22T02:28:37;93698.09;;;21.84;37.82
1926;BME280;964;42.606;23.588;2023-11-22T02:31:04;93693.06;;;21.95;37.21
1926;BME280;964;42.606;23.588;2023-11-22T02:33:31;93694.97;;;22.17;37.06
1926;BME280;964;42.606;23.588;2023-11-22T02:35:58;93696.13;;;22.07;37.51
1926;BME280;964;42.606;23.588;2023-11-22T02:38:24;93698.09;;;21.84;37.36
1926;BME280;964;42.606;23.588;2023-11-22T02:40:54;93703.59;;;22.03;36.97
1926;BME280;964;42.606;23.588;2023-11-22T02:43:21;93706.19;;;21.41;37.52
1926;BME280;964;42.606;23.588;2023-11-22T02:45:48;93712.63;;;21.65;37.41
1926;BME280;964;42.606;23.588;2023-11-22T02:48:15;93702.19;;;22.20;35.89
1926;BME280;964;42.606;23.588;2023-11-22T02:50:42;93719.81;;;22.12;35.79
1926;BME280;964;42.606;23.588;2023-11-22T02:53:09;93719.03;;;21.59;37.19
1926;BME280;964;42.606;23.588;2023-11-22T02:55:36;93724.78;;;21.26;37.12
1926;BME280;964;42.606;23.588;2023-11-22T02:58:04;93732.69;;;21.64;36.22
1926;BME280;964;42.606;23.588;2023-11-22T03:00:31;93727.50;;;21.14;36.95
1926;BME280;964;42.606;23.588;2023-11-22T03:02:59;93723.88;;;21.85;36.06
1926;BME280;964;42.606;23.588;2023-11-22T03:05:28;93732.88;;;20.54;38.65
1926;BME280;964;42.606;23.588;2023-11-22T03:07:55;93737.47;;;21.38;36.97
1926;BME280;964;42.606;23.588;2023-11-22T03:10:22;93736.59;;;20.94;38.08
1926;BME280;964;42.606;23.588;2023-11-22T03:12:49;93738.50;;;21.07;37.20
1926;BME280;964;42.606;23.588;2023-11-22T03:15:17;93732.81;;;21.39;36.58
1926;BME280;964;42.606;23.588;2023-11-22T03:17:44;93742.94;;;21.00;37.70
1926;BME280;964;42.606;23.588;2023-11-22T03:20:11;93749.91;;;20.38;38.32
1926;BME280;964;42.606;23.588;2023-11-22T03:22:38;93745.19;;;21.02;37.28
1926;BME280;964;42.606;23.588;2023-11-22T03:25:05;93737.91;;;21.37;36.20
1926;BME280;964;42.606;23.588;2023-11-22T03:27:32;93732.19;;;20.88;37.05
1926;BME280;964;42.606;23.588;2023-11-22T03:29:59;93742.69;;;21.08;37.15
1926;BME280;964;42.606;23.588;2023-11-22T03:32:27;93747.63;;;21.56;36.11
1926;BME280;964;42.606;23.588;2023-11-22T03:34:55;93742.03;;;21.72;35.86
1926;BME280;964;42.606;23.588;2023-11-22T03:37:22;93739.09;;;21.36;36.45
1926;BME280;964;42.606;23.588;2023-11-22T03:39:49;93737.00;;;21.06;36.64
1926;BME280;964;42.606;23.588;2023-11-22T03:42:16;93735.19;;;21.37;36.60
1926;BME280;964;42.606;23.588;2023-11-22T03:44:43;93740.34;;;21.44;36.18
1926;BME280;964;42.606;23.588;2023-11-22T03:47:10;93730.13;;;21.39;36.58
1926;BME280;964;42.606;23.588;2023-11-22T03:49:39;93727.72;;;21.07;37.08
1926;BME280;964;42.606;23.588;2023-11-22T03:52:06;93723.44;;;20.96;37.18
1926;BME280;964;42.606;23.588;2023-11-22T03:54:34;93723.78;;;21.33;36.43
1926;BME280;964;42.606;23.588;2023-11-22T03:57:00;93727.38;;;21.17;36.48
1926;BME280;964;42.606;23.588;2023-11-22T03:59:28;93748.13;;;21.42;36.50
1926;BME280;964;42.606;23.588;2023-11-22T04:01:54;93746.50;;;20.85;37.79
1926;BME280;964;42.606;23.588;2023-11-22T04:04:21;93756.28;;;21.51;36.78
1926;BME280;964;42.606;23.588;2023-11-22T04:06:49;93752.97;;;21.69;36.18
1926;BME280;964;42.606;23.588;2023-11-22T04:09:18;93748.41;;;21.78;36.20
1926;BME280;964;42.606;23.588;2023-11-22T04:11:45;93746.63;;;21.63;36.69
1926;BME280;964;42.606;23.588;2023-11-22T04:14:12;93748.63;;;21.71;36.05
1926;BME280;964;42.606;23.588;2023-11-22T04:16:39;93749.63;;;21.43;36.92
1926;BME280;964;42.606;23.588;2023-11-22T04:19:05;93748.72;;;20.65;38.29
1926;BME280;964;42.606;23.588;2023-11-22T04:21:32;93751.16;;;20.59;38.53
1926;BME280;964;42.606;23.588;2023-11-22T04:24:01;93735.13;;;21.28;37.41
1926;BME280;964;42.606;23.588;2023-11-22T04:26:27;93734.25;;;21.31;37.65
1926;BME280;964;42.606;23.588;2023-11-22T04:28:54;93735.31;;;20.86;38.89
1926;BME280;964;42.606;23.588;2023-11-22T04:31:21;93734.94;;;21.22;38.24
1926;BME280;964;42.606;23.588;2023-11-22T04:33:48;93744.88;;;21.69;37.65
1926;BME280;964;42.606;23.588;2023-11-22T04:36:15;93750.47;;;21.74;38.01
1926;BME280;964;42.606;23.588;2023-11-22T04:38:42;93763.09;;;21.43;37.95
1926;BME280;964;42.606;23.588;2023-11-22T04:41:11;93777.94;;;21.00;38.05
1926;BME280;964;42.606;23.588;2023-11-22T04:43:42;93796.25;;;20.30;39.47
1926;BME280;964;42.606;23.588;2023-11-22T04:46:10;93811.72;;;20.26;38.62
1926;BME280;964;42.606;23.588;2023-11-22T04:48:37;93814.72;;;20.15;38.83
1926;BME280;964;42.606;23.588;2023-11-22T04:51:05;93803.63;;;20.67;37.97
1926;BME280;964;42.606;23.588;2023-11-22T04:53:32;93811.16;;;20.97;37.32
1926;BME280;964;42.606;23.588;2023-11-22T04:55:59;93818.44;;;20.34;37.89
1926;BME280;964;42.606;23.588;2023-11-22T04:58:28;93811.16;;;20.97;36.98
1926;BME280;964;42.606;23.588;2023-11-22T05:00:56;93821.88;;;21.10;36.58
1926;BME280;964;42.606;23.588;2023-11-22T05:03:24;93813.50;;;21.21;36.52
1926;BME280;964;42.606;23.588;2023-11-22T05:05:51;93827.22;;;20.76;37.50
1926;BME280;964;42.606;23.588;2023-11-22T05:08:17;93819.31;;;21.07;37.00
1926;BME280;964;42.606;23.588;2023-11-22T05:10:44;93815.34;;;21.11;36.45
1926;BME280;964;42.606;23.588;2023-11-22T05:13:11;93830.59;;;21.39;36.45
1926;BME280;964;42.606;23.588;2023-11-22T05:15:39;93818.03;;;20.98;36.39
1926;BME280;964;42.606;23.588;2023-11-22T05:18:06;93834.91;;;21.37;36.50
1926;BME280;964;42.606;23.588;2023-11-22T05:20:32;93833.56;;;21.54;36.41
1926;BME280;964;42.606;23.588;2023-11-22T05:22:59;93845.34;;;21.60;35.95
1926;BME280;964;42.606;23.588;2023-11-22T05:25:26;93845.50;;;21.66;36.42
1926;BME280;964;42.606;23.588;2023-11-22T05:27:53;93850.09;;;21.56;36.17
1926;BME280;964;42.606;23.588;2023-11-22T05:30:23;93853.47;;;21.69;36.36
1926;BME280;964;42.606;23.588;2023-11-22T05:32:51;93852.72;;;21.69;36.45
1926;BME280;964;42.606;23.588;2023-11-22T05:35:18;93864.34;;;21.44;36.72
1926;BME280;964;42.606;23.588;2023-11-22T05:37:45;93864.69;;;21.21;37.04
1926;BME280;964;42.606;23.588;2023-11-22T05:40:12;93876.31;;;20.54;38.14
1926;BME280;964;42.606;23.588;2023-11-22T05:42:41;93882.00;;;20.57;38.07
1926;BME280;964;42.606;23.588;2023-11-22T05:45:08;93883.53;;;20.95;37.84
1926;BME280;964;42.606;23.588;2023-11-22T05:47:35;93884.72;;;21.07;37.29
1926;BME280;964;42.606;23.588;2023-11-22T05:50:05;93890.88;;;21.20;36.90
1926;BME280;964;42.606;23.588;2023-11-22T05:52:31;93877.94;;;21.28;36.45
1926;BME280;964;42.606;23.588;2023-11-22T05:54:58;93893.69;;;21.42;36.90
1926;BME280;964;42.606;23.588;2023-11-22T05:57:28;93901.44;;;21.40;36.44
1926;BME280;964;42.606;23.588;2023-11-22T05:59:55;93891.06;;;21.51;36.51
1926;BME280;964;42.606;23.588;2023-11-22T06:02:22;93898.88;;;21.24;36.93
1926;BME280;964;42.606;23.588;2023-11-22T06:04:49;93907.50;;;21.19;36.49
1926;BME280;964;42.606;23.588;2023-11-22T06:07:17;93899.56;;;21.62;36.21
1926;BME280;964;42.606;23.588;2023-11-22T06:09:44;93908.94;;;21.70;35.74
1926;BME280;964;42.606;23.588;2023-11-22T06:12:10;93905.94;;;21.43;36.48
1926;BME280;964;42.606;23.588;2023-11-22T06:14:37;93915.75;;;21.49;36.31
1926;BME280;964;42.606;23.588;2023-11-22T06:17:04;93918.03;;;21.51;36.29
1926;BME280;964;42.606;23.588;2023-11-22T06:19:31;93920.34;;;21.74;36.25
1926;BME280;964;42.606;23.588;2023-11-22T06:21:58;93916.69;;;21.68;35.84
1926;BME280;964;42.606;23.588;2023-11-22T06:24:28;93932.75;;;21.72;36.06
1926;BME280;964;42.606;23.588;2023-11-22T06:26:54;93934.31;;;21.22;36.78
1926;BME280;964;42.606;23.588;2023-11-22T06:29:21;93940.44;;;20.43;38.38
1926;BME280;964;42.606;23.588;2023-11-22T06:31:48;93937.31;;;21.24;36.99
1926;BME280;964;42.606;23.588;2023-11-22T06:34:14;93950.06;;;21.49;36.11
1926;BME280;964;42.606;23.588;2023-11-22T06:36:42;93945.59;;;21.04;36.70
1926;BME280;964;42.606;23.588;2023-11-22T06:39:08;93953.91;;;20.56;38.20
1926;BME280;964;42.606;23.588;2023-11-22T06:41:40;93951.81;;;20.76;37.99
1926;BME280;964;42.606;23.588;2023-11-22T06:44:07;93956.09;;;21.15;37.40
1926;BME280;964;42.606;23.588;2023-11-22T06:46:35;93965.91;;;21.22;37.40
1926;BME280;964;42.606;23.588;2023-11-22T06:49:01;93957.56;;;21.03;37.35
1926;BME280;964;42.606;23.588;2023-11-22T06:51:28;93958.34;;;21.17;36.99
1926;BME280;964;42.606;23.588;2023-11-22T06:53:55;93962.25;;;21.16;37.01
1926;BME280;964;42.606;23.588;2023-11-22T06:56:22;93970.41;;;21.50;36.98
1926;BME280;964;42.606;23.588;2023-11-22T06:58:50;93966.69;;;22.07;35.85
1926;BME280;964;42.606;23.588;2023-11-22T07:01:17;93970.09;;;22.20;35.59
1926;BME280;964;42.606;23.588;2023-11-22T07:03:44;93976.00;;;21.81;36.31
1926;BME280;964;42.606;23.588;2023-11-22T07:06:11;93972.69;;;21.39;36.79
1926;BME280;964;42.606;23.588;2023-11-22T07:08:38;93975.16;;;21.59;36.13
1926;BME280;964;42.606;23.588;2023-11-22T07:11:04;93980.84;;;21.98;36.16
1926;BME280;964;42.606;23.588;2023-11-22T07:13:35;93983.69;;;21.44;37.06
1926;BME280;964;42.606;23.588;2023-11-22T07:16:05;93994.41;;;21.07;37.08
1926;BME280;964;42.606;23.588;2023-11-22T07:18:32;93995.34;;;21.16;37.19
1926;BME280;964;42.606;23.588;2023-11-22T07:20:59;93989.59;;;21.65;36.80
1926;BME280;964;42.606;23.588;2023-11-22T07:23:26;93995.13;;;21.74;36.32
1926;BME280;964;42.606;23.588;2023-11-22T07:25:54;93993.72;;;21.69;36.94
1926;BME280;964;42.606;23.588;2023-11-22T07:28:21;94002.31;;;21.89;36.22
1926;BME280;964;42.606;23.588;2023-11-22T07:30:48;93985.22;;;22.18;36.00
1926;BME280;964;42.606;23.588;2023-11-22T07:33:16;93988.88;;;22.24;35.94
1926;BME280;964;42.606;23.588;2023-11-22T07:35:45;93991.72;;;22.42;35.45
1926;BME280;964;42.606;23.588;2023-11-22T07:38:12;93998.31;;;22.41;35.52
1926;BME280;964;42.606;23.588;2023-11-22T07:40:39;93988.72;;;22.40;35.88
1926;BME280;964;42.606;23.588;2023-11-22T07:43:07;93993.19;;;22.56;36.35
1926;BME280;964;42.606;23.588;2023-11-22T07:45:34;93989.03;;;22.76;35.69
1926;BME280;964;42.606;23.588;2023-11-22T07:48:03;93992.16;;;22.40;36.91
1926;BME280;964;42.606;23.588;2023-11-22T07:50:31;93991.59;;;22.45;36.59
1926;BME280;964;42.606;23.588;2023-11-22T07:52:58;93994.97;;;22.71;36.29
1926;BME280;964;42.606;23.588;2023-11-22T07:55:25;93998.75;;;22.74;35.77
1926;BME280;964;42.606;23.588;2023-11-22T07:57:52;94005.97;;;22.99;35.82
1926;BME280;964;42.606;23.588;2023-11-22T08:00:21;93999.38;;;23.00;35.50
1926;BME280;964;42.606;23.588;2023-11-22T08:02:48;94003.97;;;23.21;35.75
1926;BME280;964;42.606;23.588;2023-11-22T08:05:15;94010.22;;;23.30;35.40
1926;BME280;964;42.606;23.588;2023-11-22T08:07:44;94008.53;;;23.24;35.48
1926;BME280;964;42.606;23.588;2023-11-22T08:10:11;94010.59;;;23.20;35.83
1926;BME280;964;42.606;23.588;2023-11-22T08:12:44;94017.59;;;22.86;36.18
1926;BME280;964;42.606;23.588;2023-11-22T08:15:12;94022.94;;;22.99;36.31
1926;BME280;964;42.606;23.588;2023-11-22T08:17:39;94020.59;;;22.88;36.56
1926;BME280;964;42.606;23.588;2023-11-22T08:20:07;94023.13;;;23.05;35.84
1926;BME280;964;42.606;23.588;2023-11-22T08:22:37;94018.28;;;23.00;35.91
1926;BME280;964;42.606;23.588;2023-11-22T08:25:07;94029.94;;;22.87;36.00
1926;BME280;964;42.606;23.588;2023-11-22T08:27:38;94019.59;;;23.17;35.88
1926;BME280;964;42.606;23.588;2023-11-22T08:30:06;94016.94;;;23.26;36.22
1926;BME280;964;42.606;23.588;2023-11-22T08:32:39;94019.53;;;23.60;35.57
1926;BME280;964;42.606;23.588;2023-11-22T08:35:07;94021.84;;;23.80;35.19
1926;BME280;964;42.606;23.588;2023-11-22T08:37:34;94022.88;;;23.64;35.31
1926;BME280;964;42.606;23.588;2023-11-22T08:40:07;94021.59;;;23.25;35.18
1926;BME280;964;42.606;23.588;2023-11-22T08:42:34;94027.81;;;23.66;34.82
1926;BME280;964;42.606;23.588;2023-11-22T08:45:02;94021.56;;;23.87;34.39
1926;BME280;964;42.606;23.588;2023-11-22T08:47:29;94033.91;;;23.48;34.76
1926;BME280;964;42.606;23.588;2023-11-22T08:49:56;94034.72;;;24.07;34.13
1926;BME280;964;42.606;23.588;2023-11-22T08:52:24;94032.56;;;23.92;34.33
1926;BME280;964;42.606;23.588;2023-11-22T08:54:51;94042.84;;;24.07;34.44
1926;BME280;964;42.606;23.588;2023-11-22T08:57:19;94036.06;;;24.02;34.16
1926;BME280;964;42.606;23.588;2023-11-22T08:59:46;94040.69;;;23.92;34.54
1926;BME280;964;42.606;23.588;2023-11-22T09:02:13;94038.28;;;23.94;34.13
1926;BME280;964;42.606;23.588;2023-11-22T09:04:42;94045.72;;;23.72;34.66
1926;BME280;964;42.606;23.588;2023-11-22T09:07:09;94045.06;;;23.99;34.80
1926;BME280;964;42.606;23.588;2023-11-22T09:09:39;94038.41;;;23.51;35.56
1926;BME280;964;42.606;23.588;2023-11-22T09:12:07;94046.22;;;23.49;35.15
1926;BME280;964;42.606;23.588;2023-11-22T09:14:39;94041.81;;;23.64;35.47
1926;BME280;964;42.606;23.588;2023-11-22T09:17:07;94051.75;;;23.76;35.11
1926;BME280;964;42.606;23.588;2023-11-22T09:19:35;94049.38;;;23.87;34.62
1926;BME280;964;42.606;23.588;2023-11-22T09:22:02;94044.94;;;24.03;34.88
1926;BME280;964;42.606;23.588;2023-11-22T09:24:31;94033.19;;;24.06;34.62
1926;BME280;964;42.606;23.588;2023-11-22T09:26:58;94036.81;;;24.03;35.07
1926;BME280;964;42.606;23.588;2023-11-22T09:29:26;94036.88;;;24.30;34.45
1926;BME280;964;42.606;23.588;2023-11-22T09:31:54;94037.66;;;23.90;34.73
1926;BME280;964;42.606;23.588;2023-11-22T09:34:21;94044.19;;;23.62;35.28
1926;BME280;964;42.606;23.588;2023-11-22T09:36:49;94052.13;;;23.57;35.36
1926;BME280;964;42.606;23.588;2023-11-22T09:39:15;94063.44;;;23.64;34.80
1926;BME280;964;42.606;23.588;2023-11-22T09:41:46;94068.84;;;23.21;35.75
1926;BME280;964;42.606;23.588;2023-11-22T09:44:14;94073.53;;;23.42;35.11
1926;BME280;964;42.606;23.588;2023-11-22T09:46:42;94077.53;;;23.59;34.95
1926;BME280;964;42.606;23.588;2023-11-22T09:49:14;94072.41;;;23.61;34.79
1926;BME280;964;42.606;23.588;2023-11-22T09:51:48;94075.81;;;23.74;34.45
1926;BME280;964;42.606;23.588;2023-11-22T09:54:18;94068.16;;;23.51;34.83
1926;BME280;964;42.606;23.588;2023-11-22T09:56:46;94064.69;;;23.41;34.99
1926;BME280;964;42.606;23.588;2023-11-22T09:59:18;94076.16;;;23.85;34.46
1926;BME280;964;42.606;23.588;2023-11-22T10:01:48;94057.00;;;24.11;34.11
1926;BME280;964;42.606;23.588;2023-11-22T10:04:19;94059.44;;;24.27;34.03
1926;BME280;964;42.606;23.588;2023-11-22T10:06:45;94058.25;;;24.19;34.28
1926;BME280;964;42.606;23.588;2023-11-22T10:09:13;94061.00;;;24.64;33.58
1926;BME280;964;42.606;23.588;2023-11-22T10:11:40;94051.38;;;24.54;33.60
1926;BME280;964;42.606;23.588;2023-11-22T10:14:08;94061.75;;;24.65;33.37
1926;BME280;964;42.606;23.588;2023-11-22T10:16:35;94055.88;;;24.57;33.60
1926;BME280;964;42.606;23.588;2023-11-22T10:19:03;94057.03;;;23.80;34.71
1926;BME280;964;42.606;23.588;2023-11-22T10:21:33;94050.00;;;23.91;34.71
1926;BME280;964;42.606;23.588;2023-11-22T10:24:02;94052.44;;;23.59;34.96
1926;BME280;964;42.606;23.588;2023-11-22T10:26:35;94050.41;;;23.81;35.28
1926;BME280;964;42.606;23.588;2023-11-22T10:29:02;94046.56;;;24.58;33.68
1926;BME280;964;42.606;23.588;2023-11-22T10:31:28;94054.53;;;24.71;33.67
1926;BME280;964;42.606;23.588;2023-11-22T10:33:55;94056.34;;;24.83;33.38
1926;BME280;964;42.606;23.588;2023-11-22T10:36:23;94046.88;;;25.06;33.33
1926;BME280;964;42.606;23.588;2023-11-22T10:38:51;94042.34;;;25.21;33.23
1926;BME280;964;42.606;23.588;2023-11-22T10:41:19;94042.06;;;25.01;33.04
1926;BME280;964;42.606;23.588;2023-11-22T10:43:47;94051.38;;;24.72;33.62
1926;BME280;964;42.606;23.588;2023-11-22T10:46:15;94053.75;;;25.25;33.17
1926;BME280;964;42.606;23.588;2023-11-22T10:48:42;94048.59;;;25.54;32.69
1926;BME280;964;42.606;23.588;2023-11-22T10:51:12;94040.13;;;25.61;32.86
1926;BME280;964;42.606;23.588;2023-11-22T10:53:45;94040.13;;;25.70;32.77
1926;BME280;964;42.606;23.588;2023-11-22T10:56:16;94050.06;;;25.73;32.68
1926;BME280;964;42.606;23.588;2023-11-22T10:58:47;94050.34;;;25.75;32.40
1926;BME280;964;42.606;23.588;2023-11-22T11:01:15;94045.81;;;25.81;32.04
1926;BME280;964;42.606;23.588;2023-11-22T11:03:47;94043.28;;;25.69;32.47
1926;BME280;964;42.606;23.588;2023-11-22T11:06:20;94049.78;;;25.62;32.71
1926;BME280;964;42.606;23.588;2023-11-22T11:08:53;94057.88;;;25.20;33.05
1926;BME280;964;42.606;23.588;2023-11-22T11:11:22;94046.56;;;25.13;33.40
1926;BME280;964;42.606;23.588;2023-11-22T11:13:51;94060.53;;;24.57;34.39
1926;BME280;964;42.606;23.588;2023-11-22T11:16:18;94057.88;;;25.02;33.68
1926;BME280;964;42.606;23.588;2023-11-22T11:18:46;94052.59;;;25.08;33.52
1926;BME280;964;42.606;23.588;2023-11-22T11:21:15;94058.91;;;24.77;33.89
1926;BME280;964;42.606;23.588;2023-11-22T11:23:43;94057.66;;;24.33;34.83
1926;BME280;964;42.606;23.588;2023-11-22T11:26:15;94063.53;;;23.82;35.58
1926;BME280;964;42.606;23.588;2023-11-22T11:28:46;94054.06;;;24.45;34.63
1926;BME280;964;42.606;23.588;2023-11-22T11:31:13;94054.53;;;25.07;33.74
1926;BME280;964;42.606;23.588;2023-11-22T11:33:54;94061.88;;;24.25;34.95
1926;BME280;964;42.606;23.588;2023-11-22T11:36:23;94066.00;;;24.08;35.15
1926;BME280;964;42.606;23.588;2023-11-22T11:38:51;94064.28;;;24.41;34.99
1926;BME280;964;42.606;23.588;2023-11-22T11:41:18;94053.78;;;24.70;34.34
1926;BME280;964;42.606;23.588;2023-11-22T11:43:47;94050.22;;;24.92;34.01
1926;BME280;964;42.606;23.588;2023-11-22T11:46:15;94051.38;;;24.54;34.61
1926;BME280;964;42.606;23.588;2023-11-22T11:48:43;94047.78;;;25.03;33.97
1926;BME280;964;42.606;23.588;2023-11-22T11:51:13;94052.97;;;25.61;33.19
1926;BME280;964;42.606;23.588;2023-11-22T11:53:40;94051.88;;;25.67;32.88
1926;BME280;964;42.606;23.588;2023-11-22T11:56:07;94056.75;;;25.36;33.33
1926;BME280;964;42.606;23.588;2023-11-22T11:58:34;94052.16;;;25.78;32.74
1926;BME280;964;42.606;23.588;2023-11-22T12:01:03;94054.06;;;25.87;32.79
1926;BME280;964;42.606;23.588;2023-11-22T12:03:30;94063.94;;;25.66;32.96
1926;BME280;964;42.606;23.588;2023-11-22T12:05:57;94058.59;;;25.39;33.26
1926;BME280;964;42.606;23.588;2023-11-22T12:08:24;94057.66;;;25.42;33.49
1926;BME280;964;42.606;23.588;2023-11-22T12:10:56;94060.94;;;25.64;33.34
1926;BME280;964;42.606;23.588;2023-11-22T12:13:24;94061.69;;;26.07;32.78
1926;BME280;964;42.606;23.588;2023-11-22T12:15:51;94059.75;;;25.56;32.91
1926;BME280;964;42.606;23.588;2023-11-22T12:18:20;94058.78;;;25.77;32.77
1926;BME280;964;42.606;23.588;2023-11-22T12:20:54;94070.78;;;25.95;32.53
1926;BME280;964;42.606;23.588;2023-11-22T12:23:22;94071.75;;;25.73;32.47
1926;BME280;964;42.606;23.588;2023-11-22T12:25:53;94071.41;;;25.11;33.80
1926;BME280;964;42.606;23.588;2023-11-22T12:28:22;94079.88;;;25.13;33.87
1926;BME280;964;42.606;23.588;2023-11-22T12:30:49;94087.41;;;24.91;34.11
1926;BME280;964;42.606;23.588;2023-11-22T12:33:16;94089.94;;;24.85;34.21
1926;BME280;964;42.606;23.588;2023-11-22T12:35:46;94090.59;;;24.31;35.34
1926;BME280;964;42.606;23.588;2023-11-22T12:38:14;94091.19;;;24.26;35.36
1926;BME280;964;42.606;23.588;2023-11-22T12:40:43;94092.06;;;25.00;34.10
1926;BME280;964;42.606;23.588;2023-11-22T12:43:12;94092.94;;;24.78;34.42
1926;BME280;964;42.606;23.588;2023-11-22T12:45:40;94106.53;;;25.06;33.97
1926;BME280;964;42.606;23.588;2023-11-22T12:48:21;94101.25;;;24.84;34.61
1926;BME280;964;42.606;23.588;2023-11-22T12:50:51;94102.91;;;25.00;34.17
1926;BME280;964;42.606;23.588;2023-11-22T12:53:19;94107.06;;;24.55;35.08
1926;BME280;964;42.606;23.588;2023-11-22T12:55:48;94105.25;;;24.61;34.92
1926;BME280;964;42.606;23.588;2023-11-22T12:58:16;94105.03;;;25.05;34.17
1926;BME280;964;42.606;23.588;2023-11-22T13:00:44;94098.66;;;25.35;33.58
1926;BME280;964;42.606;23.588;2023-11-22T13:03:12;94104.56;;;25.15;33.72
1926;BME280;964;42.606;23.588;2023-11-22T13:05:39;94117.38;;;24.87;34.27
1926;BME280;964;42.606;23.588;2023-11-22T13:08:10;94130.09;;;24.60;35.06
1926;BME280;964;42.606;23.588;2023-11-22T13:10:38;94135.31;;;24.45;35.52
1926;BME280;964;42.606;23.588;2023-11-22T13:13:05;94139.97;;;24.05;36.16
1926;BME280;964;42.606;23.588;2023-11-22T13:15:34;94145.03;;;23.93;36.00
1926;BME280;964;42.606;23.588;2023-11-22T13:18:01;94142.53;;;24.39;35.72
1926;BME280;964;42.606;23.588;2023-11-22T13:20:28;94146.09;;;24.27;35.49
1926;BME280;964;42.606;23.588;2023-11-22T13:22:55;94152.69;;;24.17;36.26
1926;BME280;964;42.606;23.588;2023-11-22T13:25:24;94145.97;;;24.88;34.93